Time;durP1;ratioP1;P1;durP2;ratioP2;P2;SDS_P1;SDS_P2;PMS_P1;PMS_P2;Temp;Humidity;BMP_temperature;BMP_pressure;BME280_temperature;BME280_humidity;BME280_pressure;Samples;Min_cycle;Max_cycle;Signal;HPM_P1;HPM_P2
2022/03/02 00:01:15;;;;;;;32.13;7.47;;;5.40;99.90;;;;;;4986291;28;20473;-69
2022/03/02 00:03:41;;;;;;;14.23;7.97;;;5.50;99.90;;;;;;4987838;28;20495;-69
2022/03/02 00:06:09;;;;;;;13.50;7.80;;;5.60;99.90;;;;;;4983588;28;20449;-70
2022/03/02 00:08:37;;;;;;;13.03;7.40;;;5.60;99.90;;;;;;4980090;28;20446;-70
2022/03/02 00:11:04;;;;;;;12.20;6.60;;;5.70;99.90;;;;;;4983311;28;20523;-71
2022/03/02 00:13:34;;;;;;;10.50;6.73;;;5.60;99.90;;;;;;4987806;28;20861;-72
2022/03/02 00:16:00;;;;;;;17.77;8.43;;;5.70;99.90;;;;;;4987538;28;20467;-70
2022/03/02 00:18:27;;;;;;;18.70;11.73;;;5.70;99.90;;;;;;4986865;28;20431;-69
2022/03/02 00:20:54;;;;;;;24.00;12.13;;;5.50;99.90;;;;;;4987288;28;20432;-70
2022/03/02 00:23:21;;;;;;;19.67;8.17;;;5.30;99.90;;;;;;4984612;28;20498;-70
2022/03/02 00:25:49;;;;;;;12.37;7.53;;;5.40;99.90;;;;;;4983115;28;20460;-70
2022/03/02 00:28:16;;;;;;;10.20;7.33;;;5.60;99.90;;;;;;4980396;28;20882;-71
2022/03/02 00:30:43;;;;;;;16.87;8.27;;;5.60;99.90;;;;;;4988718;28;20577;-71
2022/03/02 00:33:10;;;;;;;11.60;7.67;;;5.50;99.90;;;;;;4977206;28;20447;-70
2022/03/02 00:35:37;;;;;;;13.90;10.53;;;5.50;99.90;;;;;;4982814;28;20464;-71
2022/03/02 00:38:06;;;;;;;19.87;6.80;;;5.60;99.90;;;;;;4984362;28;20494;-70
2022/03/02 00:40:33;;;;;;;11.23;5.60;;;5.60;99.90;;;;;;4984653;28;20436;-70
2022/03/02 00:43:01;;;;;;;11.93;6.30;;;5.60;99.90;;;;;;4982088;28;20957;-71
2022/03/02 00:45:28;;;;;;;20.80;8.90;;;5.60;99.90;;;;;;4980611;28;20909;-72
2022/03/02 00:47:55;;;;;;;11.60;7.23;;;5.50;99.90;;;;;;4975420;28;21009;-70
2022/03/02 00:50:22;;;;;;;15.03;6.97;;;5.50;99.90;;;;;;4986312;28;20444;-69
2022/03/02 00:52:50;;;;;;;19.30;8.77;;;5.30;99.90;;;;;;4982712;28;20470;-70
2022/03/02 00:55:17;;;;;;;21.47;7.67;;;5.30;99.90;;;;;;4982423;28;21176;-70
2022/03/02 00:57:45;;;;;;;10.67;5.20;;;5.30;99.90;;;;;;4986031;28;20469;-68
2022/03/02 01:00:14;;;;;;;10.97;6.93;;;5.30;99.90;;;;;;4982304;28;20440;-68
2022/03/02 01:02:40;;;;;;;9.07;5.90;;;5.30;99.90;;;;;;4983033;28;20439;-68
2022/03/02 01:05:08;;;;;;;14.80;7.90;;;5.30;99.90;;;;;;4982412;28;22492;-67
2022/03/02 01:07:35;;;;;;;13.50;7.40;;;5.30;99.90;;;;;;4983510;28;20459;-68
2022/03/02 01:10:04;;;;;;;15.03;7.30;;;5.30;99.90;;;;;;4981092;28;20469;-70
2022/03/02 01:12:31;;;;;;;9.20;6.13;;;5.30;99.90;;;;;;4981911;28;20964;-68
2022/03/02 01:14:58;;;;;;;8.80;5.43;;;5.30;99.90;;;;;;4982275;28;20472;-69
2022/03/02 01:17:26;;;;;;;15.47;6.60;;;5.20;99.90;;;;;;4982535;28;20564;-69
2022/03/02 01:19:53;;;;;;;20.33;11.50;;;5.20;99.90;;;;;;4987111;28;20446;-68
2022/03/02 01:22:21;;;;;;;15.60;5.77;;;5.10;99.90;;;;;;4984849;28;20461;-68
2022/03/02 01:24:48;;;;;;;10.33;6.70;;;5.00;99.90;;;;;;4984871;28;20472;-68
2022/03/02 01:27:14;;;;;;;14.20;6.43;;;5.00;99.90;;;;;;4981024;28;20489;-69
2022/03/02 01:29:42;;;;;;;21.20;6.77;;;5.00;99.90;;;;;;4983454;28;20436;-69
2022/03/02 01:32:10;;;;;;;11.70;5.33;;;5.00;99.90;;;;;;4985438;28;20789;-68
2022/03/02 01:34:38;;;;;;;7.33;6.20;;;4.90;99.90;;;;;;4985126;28;20527;-69
2022/03/02 01:37:06;;;;;;;8.63;6.10;;;4.90;99.90;;;;;;4981828;28;20486;-67
2022/03/02 01:39:32;;;;;;;13.23;6.87;;;4.80;99.90;;;;;;4979935;28;20531;-68
2022/03/02 01:41:59;;;;;;;15.37;5.97;;;4.70;99.90;;;;;;4977919;28;20436;-68
2022/03/02 01:44:26;;;;;;;16.03;6.57;;;4.60;99.90;;;;;;4985011;28;20514;-69
2022/03/02 01:46:53;;;;;;;8.97;6.77;;;4.60;99.90;;;;;;4987411;28;20591;-66
2022/03/02 01:49:20;;;;;;;12.07;4.70;;;4.50;99.90;;;;;;4981261;28;20480;-67
2022/03/02 01:51:48;;;;;;;10.60;6.70;;;4.50;99.90;;;;;;4982111;28;20751;-69
2022/03/02 01:54:14;;;;;;;12.63;5.77;;;4.50;99.90;;;;;;4985854;28;20520;-70
2022/03/02 01:56:41;;;;;;;10.60;6.13;;;4.40;99.90;;;;;;4982707;28;20892;-68
2022/03/02 01:59:08;;;;;;;9.23;7.07;;;4.40;99.90;;;;;;4984651;28;20694;-68
2022/03/02 02:01:35;;;;;;;13.13;5.83;;;4.40;99.90;;;;;;4991642;28;20487;-68
2022/03/02 02:04:03;;;;;;;12.50;4.60;;;4.40;99.90;;;;;;4980559;28;20465;-69
2022/03/02 02:06:30;;;;;;;12.33;5.80;;;4.40;99.90;;;;;;4989370;28;20833;-70
2022/03/02 02:08:58;;;;;;;8.70;4.70;;;4.30;99.90;;;;;;4989544;28;20471;-70
2022/03/02 02:11:25;;;;;;;11.93;5.83;;;4.20;99.90;;;;;;4991243;28;21884;-70
2022/03/02 02:13:52;;;;;;;11.90;5.63;;;4.10;99.90;;;;;;4985070;28;20806;-70
2022/03/02 02:16:21;;;;;;;8.63;7.50;;;4.20;99.90;;;;;;4990315;28;20584;-70
2022/03/02 02:18:50;;;;;;;15.23;7.03;;;4.20;99.90;;;;;;4989313;28;20819;-69
2022/03/02 02:21:19;;;;;;;8.17;4.90;;;4.10;99.90;;;;;;4985535;28;20449;-71
2022/03/02 02:23:45;;;;;;;6.60;5.20;;;4.10;99.90;;;;;;4986469;28;20864;-70
2022/03/02 02:26:12;;;;;;;7.27;5.13;;;4.00;99.90;;;;;;4989638;28;20990;-71
2022/03/02 02:28:40;;;;;;;8.60;5.33;;;4.00;99.90;;;;;;4985448;28;20425;-70
2022/03/02 02:31:10;;;;;;;11.57;6.87;;;4.00;99.90;;;;;;4988779;28;20461;-70
2022/03/02 02:33:37;;;;;;;11.97;6.93;;;4.00;99.90;;;;;;4988068;28;20463;-70
2022/03/02 02:36:04;;;;;;;8.87;3.97;;;3.60;99.90;;;;;;4990014;28;20473;-70
2022/03/02 02:38:32;;;;;;;13.27;5.20;;;3.60;99.90;;;;;;4986444;28;20505;-70
2022/03/02 02:40:59;;;;;;;6.07;4.17;;;3.50;99.90;;;;;;4991454;28;25096;-68
2022/03/02 02:43:26;;;;;;;4.83;3.80;;;3.60;99.90;;;;;;4976658;28;20502;-69
2022/03/02 02:45:54;;;;;;;15.03;6.17;;;3.80;99.90;;;;;;4979438;28;20544;-68
2022/03/02 02:48:21;;;;;;;20.13;4.97;;;3.80;99.90;;;;;;4984815;28;20531;-69
2022/03/02 02:50:48;;;;;;;8.00;5.37;;;3.70;99.90;;;;;;4987655;28;20565;-69
2022/03/02 02:53:16;;;;;;;10.23;6.00;;;3.70;99.90;;;;;;4987606;28;20824;-68
2022/03/02 02:55:46;;;;;;;7.83;5.30;;;3.70;99.90;;;;;;4987475;28;20616;-67
2022/03/02 02:58:13;;;;;;;9.10;4.00;;;3.70;99.90;;;;;;4989780;28;20458;-68
2022/03/02 03:00:42;;;;;;;15.23;6.67;;;3.70;99.90;;;;;;4983852;28;20440;-68
2022/03/02 03:03:10;;;;;;;9.03;4.37;;;3.90;99.90;;;;;;4982217;28;20464;-69
2022/03/02 03:05:37;;;;;;;7.10;5.30;;;4.00;99.90;;;;;;4983767;28;20894;-69
2022/03/02 03:08:05;;;;;;;7.43;4.50;;;3.90;99.90;;;;;;4982131;28;20429;-69
2022/03/02 03:10:33;;;;;;;7.40;4.40;;;4.00;99.90;;;;;;4977421;28;20506;-69
2022/03/02 03:13:01;;;;;;;10.00;5.00;;;4.00;99.90;;;;;;4990788;28;20427;-68
2022/03/02 03:15:29;;;;;;;5.00;4.10;;;3.90;99.90;;;;;;4994388;28;20506;-68
2022/03/02 03:17:56;;;;;;;6.67;4.83;;;3.80;99.90;;;;;;4988715;28;20458;-68
2022/03/02 03:20:27;;;;;;;9.37;5.20;;;3.90;99.90;;;;;;4984097;28;20503;-67
2022/03/02 03:22:54;;;;;;;6.13;4.50;;;3.90;99.90;;;;;;4985479;28;20444;-68
2022/03/02 03:25:22;;;;;;;12.77;6.33;;;4.00;99.90;;;;;;4982522;28;20941;-68
2022/03/02 03:27:50;;;;;;;8.53;4.10;;;4.00;99.90;;;;;;4985802;28;20501;-68
2022/03/02 03:30:20;;;;;;;14.13;5.70;;;4.20;99.90;;;;;;4981023;28;20435;-69
2022/03/02 03:32:48;;;;;;;7.47;5.17;;;4.10;99.90;;;;;;4985892;28;20469;-68
2022/03/02 03:35:20;;;;;;;7.60;4.63;;;4.10;99.90;;;;;;4979362;28;20433;-67
2022/03/02 03:37:47;;;;;;;9.27;6.53;;;4.20;99.90;;;;;;4980050;28;20444;-69
2022/03/02 03:40:15;;;;;;;9.97;4.97;;;4.20;99.90;;;;;;4979229;28;27587;-68
2022/03/02 03:42:42;;;;;;;12.83;4.40;;;4.20;99.90;;;;;;4981062;28;20585;-68
2022/03/02 03:45:10;;;;;;;6.07;4.57;;;4.10;99.90;;;;;;4987739;28;20527;-69
2022/03/02 03:47:39;;;;;;;6.10;5.43;;;4.10;99.90;;;;;;4984941;28;20486;-68
2022/03/02 03:50:07;;;;;;;7.03;4.60;;;4.10;99.90;;;;;;4979625;28;20597;-68
2022/03/02 03:52:34;;;;;;;6.13;3.80;;;4.10;99.90;;;;;;4989633;28;20449;-68
2022/03/02 03:55:00;;;;;;;6.93;6.07;;;4.00;99.90;;;;;;4979316;28;20454;-68
2022/03/02 03:57:27;;;;;;;7.10;4.50;;;3.90;99.90;;;;;;4987473;28;21589;-68
2022/03/02 03:59:54;;;;;;;8.37;5.63;;;3.90;99.90;;;;;;4988870;28;20953;-67
2022/03/02 04:02:21;;;;;;;8.13;4.60;;;3.80;99.90;;;;;;4986853;28;20488;-68
2022/03/02 04:04:49;;;;;;;7.60;6.20;;;3.90;99.90;;;;;;4975204;28;20463;-68
2022/03/02 04:07:15;;;;;;;8.10;4.57;;;3.90;99.90;;;;;;4979140;28;20467;-67
2022/03/02 04:09:42;;;;;;;11.77;5.93;;;3.80;99.90;;;;;;4979141;28;20811;-67
2022/03/02 04:12:09;;;;;;;11.17;5.87;;;3.80;99.90;;;;;;4988518;28;20552;-68
2022/03/02 04:14:36;;;;;;;15.87;4.30;;;3.70;99.90;;;;;;4981686;28;20485;-67
2022/03/02 04:17:03;;;;;;;8.30;5.20;;;3.70;99.90;;;;;;4975194;28;22001;-70
2022/03/02 04:19:30;;;;;;;9.13;4.60;;;3.70;99.90;;;;;;4984208;28;20540;-69
2022/03/02 04:21:58;;;;;;;10.13;5.83;;;3.60;99.90;;;;;;4986390;28;21392;-70
2022/03/02 04:24:24;;;;;;;9.80;5.40;;;3.50;99.90;;;;;;4981517;28;20500;-68
2022/03/02 04:26:51;;;;;;;7.03;4.70;;;3.30;99.90;;;;;;4982916;28;20854;-69
2022/03/02 04:29:18;;;;;;;12.97;5.43;;;3.20;99.90;;;;;;4982807;28;20465;-68
2022/03/02 04:31:44;;;;;;;7.27;4.37;;;3.30;99.90;;;;;;4988596;28;20531;-68
2022/03/02 04:34:11;;;;;;;16.20;6.50;;;3.30;99.90;;;;;;4983287;28;20548;-69
2022/03/02 04:36:38;;;;;;;8.50;6.37;;;3.30;99.90;;;;;;4985068;28;20546;-69
2022/03/02 04:39:06;;;;;;;5.13;3.53;;;3.30;99.90;;;;;;4985511;28;21408;-67
2022/03/02 04:41:33;;;;;;;8.60;5.27;;;3.10;99.90;;;;;;4985194;28;20428;-67
2022/03/02 04:44:00;;;;;;;7.23;5.17;;;3.20;99.90;;;;;;4990246;28;20560;-68
2022/03/02 04:46:26;;;;;;;9.57;5.13;;;3.10;99.90;;;;;;4985318;28;20500;-67
2022/03/02 04:48:53;;;;;;;10.50;5.67;;;3.10;99.90;;;;;;4989574;28;20834;-67
2022/03/02 04:51:20;;;;;;;5.50;3.20;;;3.00;99.90;;;;;;4987951;28;20845;-69
2022/03/02 04:53:46;;;;;;;13.63;5.53;;;3.10;99.90;;;;;;4986246;28;20432;-68
2022/03/02 04:56:14;;;;;;;14.80;6.30;;;3.10;99.90;;;;;;4982996;28;20481;-68
2022/03/02 04:58:41;;;;;;;8.80;4.93;;;3.00;99.90;;;;;;4987687;28;20985;-68
2022/03/02 05:01:08;;;;;;;9.80;4.87;;;3.00;99.90;;;;;;4986200;28;20584;-66
2022/03/02 05:03:34;;;;;;;5.50;3.57;;;2.90;99.90;;;;;;4985842;28;20477;-68
2022/03/02 05:06:01;;;;;;;5.73;4.20;;;2.90;99.90;;;;;;4977481;28;20460;-66
2022/03/02 05:08:28;;;;;;;17.13;6.53;;;2.80;99.90;;;;;;4982980;28;20462;-68
2022/03/02 05:10:55;;;;;;;8.13;4.87;;;2.70;99.90;;;;;;4986454;28;20513;-67
2022/03/02 05:13:23;;;;;;;7.17;4.70;;;2.70;99.90;;;;;;4985317;28;20486;-67
2022/03/02 05:15:50;;;;;;;10.13;4.43;;;2.80;99.90;;;;;;4989979;28;20482;-68
2022/03/02 05:18:17;;;;;;;7.70;4.63;;;2.90;99.90;;;;;;4980173;28;20990;-68
2022/03/02 05:20:43;;;;;;;10.03;5.40;;;2.80;99.90;;;;;;4990378;28;20462;-69
2022/03/02 05:23:10;;;;;;;9.87;4.53;;;2.90;99.90;;;;;;4989368;28;20961;-68
2022/03/02 05:25:37;;;;;;;20.30;6.07;;;2.80;99.90;;;;;;4981368;28;20755;-68
2022/03/02 05:28:04;;;;;;;6.07;5.03;;;2.70;99.90;;;;;;4976190;28;20462;-68
2022/03/02 05:30:32;;;;;;;9.50;5.07;;;2.70;99.90;;;;;;4979254;28;20501;-68
2022/03/02 05:32:59;;;;;;;9.80;5.30;;;2.60;99.90;;;;;;4981807;28;20516;-68
2022/03/02 05:35:26;;;;;;;9.93;4.97;;;2.70;99.90;;;;;;4977631;28;20461;-69
2022/03/02 05:37:52;;;;;;;10.83;4.87;;;2.70;99.90;;;;;;4978801;28;20466;-69
2022/03/02 05:40:20;;;;;;;8.30;3.70;;;2.70;99.90;;;;;;4980571;28;20436;-70
2022/03/02 05:42:47;;;;;;;6.20;4.40;;;2.60;99.90;;;;;;4992615;28;20633;-68
2022/03/02 05:45:14;;;;;;;9.90;6.80;;;2.30;99.90;;;;;;4993284;28;20554;-67
2022/03/02 05:47:42;;;;;;;10.77;5.50;;;2.30;99.90;;;;;;4982876;28;20903;-70
2022/03/02 05:50:10;;;;;;;16.83;7.20;;;2.40;99.90;;;;;;4997266;28;20443;-68
2022/03/02 05:52:37;;;;;;;13.33;6.50;;;2.60;99.90;;;;;;4993767;28;20486;-67
2022/03/02 05:55:05;;;;;;;17.97;8.60;;;2.70;99.90;;;;;;5001006;28;20439;-69
2022/03/02 05:57:31;;;;;;;11.10;5.83;;;2.70;99.90;;;;;;4998479;28;20526;-68
2022/03/02 05:59:58;;;;;;;22.93;5.77;;;2.80;99.90;;;;;;4997691;28;20956;-68
2022/03/02 06:02:25;;;;;;;12.77;5.67;;;2.80;99.90;;;;;;4997836;28;20439;-67
2022/03/02 06:04:53;;;;;;;12.03;6.90;;;2.90;99.90;;;;;;4996721;28;20477;-68
2022/03/02 06:07:19;;;;;;;29.70;7.27;;;3.10;99.90;;;;;;5003305;28;20498;-67
2022/03/02 06:09:46;;;;;;;13.37;7.30;;;3.20;99.90;;;;;;4993732;28;20491;-68
2022/03/02 06:12:15;;;;;;;14.70;5.97;;;2.90;99.90;;;;;;4998726;28;20464;-68
2022/03/02 06:14:42;;;;;;;12.73;6.20;;;3.00;99.90;;;;;;4993120;28;20443;-68
2022/03/02 06:17:10;;;;;;;5.77;4.30;;;3.00;99.90;;;;;;4997352;28;21215;-68
2022/03/02 06:19:37;;;;;;;14.20;8.67;;;3.20;99.90;;;;;;4997045;28;20524;-68
2022/03/02 06:22:06;;;;;;;10.67;7.53;;;3.40;99.90;;;;;;5000630;28;20488;-68
2022/03/02 06:24:33;;;;;;;9.30;7.63;;;3.50;99.90;;;;;;4997564;28;20942;-68
2022/03/02 06:27:00;;;;;;;11.70;6.00;;;3.40;99.90;;;;;;4996479;28;20854;-68
2022/03/02 06:29:27;;;;;;;10.57;7.20;;;3.50;99.90;;;;;;4997861;28;20451;-68
2022/03/02 06:31:53;;;;;;;12.70;8.20;;;3.60;99.90;;;;;;5001319;28;20800;-68
2022/03/02 06:34:20;;;;;;;12.80;6.07;;;3.70;99.90;;;;;;5000212;28;21011;-67
2022/03/02 06:36:50;;;;;;;11.70;9.57;;;3.80;99.90;;;;;;4999620;28;20486;-68
2022/03/02 06:39:19;;;;;;;12.53;6.50;;;3.90;99.90;;;;;;4997535;28;20433;-68
2022/03/02 06:42:04;;;;;;;18.80;8.33;;;4.00;99.90;;;;;;4999664;28;20868;-69
2022/03/02 06:44:34;;;;;;;9.77;5.17;;;4.10;99.90;;;;;;4996435;28;20492;-68
2022/03/02 06:47:04;;;;;;;8.73;6.60;;;4.00;99.90;;;;;;5002322;28;20496;-68
2022/03/02 06:49:44;;;;;;;10.97;5.87;;;4.30;99.90;;;;;;5002189;28;20436;-68
2022/03/02 06:52:12;;;;;;;6.53;5.13;;;4.70;99.90;;;;;;4998102;28;20540;-68
2022/03/02 06:54:43;;;;;;;15.77;8.03;;;4.80;99.90;;;;;;4998975;28;20436;-68
2022/03/02 06:57:13;;;;;;;9.87;5.70;;;4.80;99.90;;;;;;4995917;28;20505;-68
2022/03/02 06:59:42;;;;;;;14.50;6.37;;;4.70;99.90;;;;;;5000968;28;20467;-68
2022/03/02 07:02:11;;;;;;;7.70;5.00;;;4.70;99.90;;;;;;4994510;28;20488;-68
2022/03/02 07:04:40;;;;;;;11.20;7.83;;;4.80;99.90;;;;;;5001738;28;20439;-68
2022/03/02 07:07:08;;;;;;;12.50;7.00;;;4.60;99.90;;;;;;4993236;28;20471;-67
2022/03/02 07:09:35;;;;;;;10.10;7.10;;;4.40;99.90;;;;;;5000083;28;20790;-68
2022/03/02 07:12:05;;;;;;;20.60;8.40;;;4.20;99.90;;;;;;4998334;28;20448;-67
2022/03/02 07:14:33;;;;;;;14.83;6.53;;;4.40;99.90;;;;;;4998689;28;20448;-68
2022/03/02 07:17:02;;;;;;;8.97;5.90;;;4.50;99.90;;;;;;4996760;28;20883;-67
2022/03/02 07:19:28;;;;;;;8.73;6.10;;;4.70;99.90;;;;;;4994570;28;21285;-68
2022/03/02 07:21:56;;;;;;;13.77;9.40;;;4.90;99.90;;;;;;4993563;28;20461;-67
2022/03/02 07:24:25;;;;;;;19.70;7.80;;;5.10;99.90;;;;;;4994274;28;20469;-68
2022/03/02 07:26:53;;;;;;;11.00;5.47;;;5.10;99.90;;;;;;4995374;28;20529;-68
2022/03/02 07:29:23;;;;;;;10.07;4.97;;;5.10;99.90;;;;;;4995084;28;21029;-68
2022/03/02 07:31:51;;;;;;;12.53;6.60;;;5.20;99.90;;;;;;4998029;28;20440;-68
2022/03/02 07:34:19;;;;;;;9.80;4.80;;;5.20;99.90;;;;;;4997533;28;21040;-68
2022/03/02 07:36:46;;;;;;;8.93;5.53;;;5.10;99.90;;;;;;5001397;28;20536;-68
2022/03/02 07:39:13;;;;;;;10.77;5.20;;;5.20;99.90;;;;;;4994077;28;20453;-69
2022/03/02 07:41:40;;;;;;;7.27;4.57;;;5.20;99.90;;;;;;4996306;28;21042;-69
2022/03/02 07:44:07;;;;;;;7.57;5.53;;;5.30;99.90;;;;;;4996329;28;20507;-68
2022/03/02 07:46:35;;;;;;;15.50;8.70;;;5.50;99.90;;;;;;4997665;28;20519;-68
2022/03/02 07:49:03;;;;;;;8.57;6.40;;;5.60;99.90;;;;;;5001591;28;20464;-70
2022/03/02 07:51:34;;;;;;;10.70;6.20;;;6.00;99.90;;;;;;4996377;28;20853;-68
2022/03/02 07:54:03;;;;;;;7.43;5.30;;;6.30;99.90;;;;;;4991635;28;20443;-69
2022/03/02 07:56:31;;;;;;;12.83;4.90;;;6.50;99.90;;;;;;4998746;28;20448;-68
2022/03/02 07:59:02;;;;;;;22.90;6.53;;;6.60;99.90;;;;;;4999608;28;20862;-68
2022/03/02 08:01:31;;;;;;;10.50;5.00;;;7.20;99.90;;;;;;4995817;28;20446;-69
2022/03/02 08:04:05;;;;;;;9.60;5.30;;;7.50;99.90;;;;;;4994989;28;20454;-69
2022/03/02 08:06:35;;;;;;;15.63;6.43;;;7.60;99.90;;;;;;4993322;28;20487;-69
2022/03/02 08:09:03;;;;;;;11.17;6.10;;;7.80;99.90;;;;;;4995141;28;20465;-69
2022/03/02 08:11:31;;;;;;;9.53;5.73;;;8.00;99.90;;;;;;4997238;28;20462;-67
2022/03/02 08:14:00;;;;;;;9.00;5.40;;;8.10;99.90;;;;;;4997698;28;21141;-68
2022/03/02 08:16:27;;;;;;;9.57;6.90;;;7.90;99.90;;;;;;4994774;28;21077;-68
2022/03/02 08:18:54;;;;;;;9.73;6.80;;;7.90;99.90;;;;;;4998231;28;20461;-69
2022/03/02 08:21:23;;;;;;;11.60;6.10;;;8.30;99.90;;;;;;4992570;28;20825;-69
2022/03/02 08:23:52;;;;;;;15.80;6.37;;;9.20;99.90;;;;;;4995117;28;20523;-69
2022/03/02 08:26:21;;;;;;;12.47;4.90;;;9.90;99.90;;;;;;4992817;28;20921;-68
2022/03/02 08:28:47;;;;;;;13.63;6.00;;;10.00;97.50;;;;;;4996760;28;20461;-68
2022/03/02 08:31:15;;;;;;;21.63;5.57;;;10.30;96.70;;;;;;4994754;28;20457;-68
2022/03/02 08:33:42;;;;;;;9.87;6.77;;;10.80;94.50;;;;;;4991842;28;20468;-68
2022/03/02 08:36:10;;;;;;;8.13;4.93;;;11.00;93.40;;;;;;4991535;28;20488;-69
2022/03/02 08:38:42;;;;;;;6.63;5.30;;;11.10;92.50;;;;;;4997830;28;20516;-69
2022/03/02 08:41:10;;;;;;;10.67;7.00;;;11.50;92.50;;;;;;4998056;28;20524;-69
2022/03/02 08:43:38;;;;;;;13.23;6.60;;;12.30;89.40;;;;;;4996082;28;20432;-69
2022/03/02 08:46:07;;;;;;;10.87;5.80;;;12.80;88.20;;;;;;4991154;28;20481;-68
2022/03/02 08:48:34;;;;;;;11.30;7.10;;;13.70;83.00;;;;;;4994820;28;20466;-69
2022/03/02 08:51:02;;;;;;;16.13;7.30;;;13.40;75.90;;;;;;4993195;28;20468;-69
2022/03/02 08:53:32;;;;;;;7.70;6.63;;;13.70;72.40;;;;;;4998380;28;20588;-69
2022/03/02 08:56:03;;;;;;;7.20;5.07;;;14.60;70.10;;;;;;4998619;28;21005;-68
2022/03/02 08:58:30;;;;;;;8.73;6.50;;;15.40;63.60;;;;;;4996943;28;20899;-68
2022/03/02 09:01:00;;;;;;;6.10;5.47;;;15.30;61.70;;;;;;5001185;28;20503;-68
2022/03/02 09:03:34;;;;;;;12.20;5.60;;;16.10;58.60;;;;;;4997572;28;20458;-68
2022/03/02 09:06:03;;;;;;;7.97;5.37;;;16.70;58.10;;;;;;4995189;28;20483;-68
2022/03/02 09:08:31;;;;;;;7.40;5.20;;;17.40;55.00;;;;;;4998858;28;20470;-68
2022/03/02 09:10:58;;;;;;;7.93;7.03;;;17.00;53.00;;;;;;5000376;28;20522;-68
2022/03/02 09:13:26;;;;;;;6.90;5.00;;;17.40;50.90;;;;;;4996012;28;21449;-67
2022/03/02 09:15:53;;;;;;;9.40;6.67;;;17.20;49.80;;;;;;4998160;28;20489;-69
2022/03/02 09:18:19;;;;;;;8.20;6.37;;;16.80;49.60;;;;;;4998889;28;20583;-67
2022/03/02 09:20:51;;;;;;;6.97;5.70;;;17.40;49.90;;;;;;4995348;28;20512;-67
2022/03/02 09:23:18;;;;;;;8.93;5.77;;;17.50;47.90;;;;;;5004378;28;20468;-68
2022/03/02 09:25:46;;;;;;;7.20;5.33;;;18.10;47.70;;;;;;4997034;28;20810;-69
2022/03/02 09:28:18;;;;;;;9.50;6.67;;;18.70;47.20;;;;;;5000282;28;20840;-68
2022/03/02 09:30:47;;;;;;;8.97;6.33;;;18.90;46.90;;;;;;4999038;28;21995;-69
2022/03/02 09:33:15;;;;;;;10.70;6.60;;;19.10;46.90;;;;;;5000449;28;20552;-69
2022/03/02 09:35:44;;;;;;;9.57;6.00;;;18.90;46.90;;;;;;4998222;28;20559;-69
2022/03/02 09:38:12;;;;;;;13.90;7.93;;;18.90;45.10;;;;;;4996860;28;20801;-68
2022/03/02 09:40:43;;;;;;;9.47;6.70;;;18.00;45.80;;;;;;4999088;28;20562;-68
2022/03/02 09:43:16;;;;;;;7.77;6.47;;;18.10;46.50;;;;;;4997912;28;20458;-69
2022/03/02 09:45:43;;;;;;;8.70;7.57;;;18.20;46.10;;;;;;4998608;28;20615;-68
2022/03/02 09:48:23;;;;;;;9.50;6.60;;;18.10;44.00;;;;;;5000593;28;20497;-68
2022/03/02 09:50:52;;;;;;;8.43;5.90;;;18.30;43.40;;;;;;5001358;28;20523;-68
2022/03/02 09:53:23;;;;;;;10.00;6.10;;;18.00;44.40;;;;;;4997640;28;20477;-68
2022/03/02 09:55:49;;;;;;;11.30;6.40;;;18.10;44.70;;;;;;5000472;28;20534;-69
2022/03/02 09:58:21;;;;;;;14.07;6.17;;;18.60;42.20;;;;;;4999605;28;20457;-68
2022/03/02 10:00:48;;;;;;;8.80;7.63;;;18.50;42.00;;;;;;4996884;28;21041;-68
2022/03/02 10:03:20;;;;;;;8.10;4.80;;;18.30;42.10;;;;;;5001355;28;20523;-69
2022/03/02 10:05:49;;;;;;;8.27;6.60;;;18.70;41.60;;;;;;4995902;28;20560;-69
2022/03/02 10:08:19;;;;;;;9.10;5.30;;;19.00;41.40;;;;;;5004852;28;20480;-68
2022/03/02 10:10:50;;;;;;;6.23;3.30;;;18.30;39.50;;;;;;4999160;28;20516;-69
2022/03/02 10:13:17;;;;;;;7.27;4.77;;;18.00;39.40;;;;;;4997254;28;20466;-71
2022/03/02 10:15:45;;;;;;;10.27;4.63;;;17.60;39.80;;;;;;4996814;28;20946;-69
2022/03/02 10:18:13;;;;;;;8.80;5.43;;;18.40;40.60;;;;;;4996337;28;20622;-69
2022/03/02 10:20:49;;;;;;;12.90;5.67;;;18.80;41.20;;;;;;4996713;28;20453;-68
2022/03/02 10:23:33;;;;;;;7.03;4.00;;;19.40;39.60;;;;;;4997882;28;20462;-69
2022/03/02 10:26:07;;;;;;;8.17;5.50;;;19.80;38.90;;;;;;4996394;28;21030;-69
2022/03/02 10:28:58;;;;;;;7.63;5.20;;;20.00;39.10;;;;;;5000442;28;20470;-70
2022/03/02 10:31:44;;;;;;;11.23;5.20;;;19.40;36.90;;;;;;4998923;28;20501;-69
2022/03/02 10:34:31;;;;;;;6.27;5.00;;;19.70;38.00;;;;;;4997354;28;20506;-69
2022/03/02 10:37:05;;;;;;;5.90;4.33;;;20.40;37.50;;;;;;4996077;28;20481;-69
2022/03/02 10:39:49;;;;;;;11.63;5.77;;;19.40;37.20;;;;;;4994469;28;20926;-69
2022/03/02 10:42:21;;;;;;;9.40;6.83;;;19.60;37.90;;;;;;4995078;28;20881;-68
2022/03/02 10:45:03;;;;;;;7.93;5.37;;;20.10;36.90;;;;;;5002225;28;20861;-69
2022/03/02 10:47:30;;;;;;;7.63;5.30;;;19.70;37.60;;;;;;4995909;28;21242;-69
2022/03/02 10:50:01;;;;;;;9.93;5.57;;;19.50;36.60;;;;;;4995756;28;20520;-68
2022/03/02 10:52:29;;;;;;;7.70;4.43;;;19.50;36.90;;;;;;4999853;28;20458;-68
2022/03/02 10:54:57;;;;;;;9.30;4.97;;;20.00;37.50;;;;;;5000694;28;20865;-69
2022/03/02 10:57:26;;;;;;;11.03;5.90;;;20.30;36.80;;;;;;4996572;28;20564;-67
2022/03/02 10:59:53;;;;;;;6.00;4.40;;;20.70;36.30;;;;;;4995990;28;20525;-68
2022/03/02 11:02:23;;;;;;;5.17;4.10;;;20.40;35.50;;;;;;4995138;28;20520;-69
2022/03/02 11:04:54;;;;;;;8.70;6.00;;;21.20;36.10;;;;;;4996384;28;20558;-68
2022/03/02 11:07:21;;;;;;;10.43;6.37;;;21.10;35.20;;;;;;4995907;28;20489;-68
2022/03/02 11:09:51;;;;;;;15.67;6.10;;;21.30;35.70;;;;;;4998308;28;21064;-67
2022/03/02 11:12:20;;;;;;;10.80;6.17;;;22.00;35.90;;;;;;4999687;28;20978;-67
2022/03/02 11:14:57;;;;;;;12.50;7.20;;;22.50;34.90;;;;;;4994099;28;20465;-69
2022/03/02 11:17:24;;;;;;;7.83;5.17;;;23.60;34.80;;;;;;4994838;28;20497;-68
2022/03/02 11:19:53;;;;;;;13.17;6.90;;;24.40;33.90;;;;;;4993383;28;20549;-68
2022/03/02 11:22:21;;;;;;;7.33;6.03;;;23.50;33.70;;;;;;4995022;28;20480;-68
2022/03/02 11:24:48;;;;;;;8.63;5.70;;;23.70;33.20;;;;;;4992510;28;20469;-69
2022/03/02 11:27:31;;;;;;;10.53;6.50;;;23.30;34.30;;;;;;4997501;28;21298;-69
2022/03/02 11:30:03;;;;;;;7.17;5.40;;;23.50;33.90;;;;;;4994144;28;20817;-67
2022/03/02 11:32:33;;;;;;;8.97;5.87;;;22.90;35.50;;;;;;5000978;28;20466;-68
2022/03/02 11:35:01;;;;;;;8.37;7.10;;;23.90;33.80;;;;;;4992937;28;20541;-69
2022/03/02 11:37:28;;;;;;;7.70;6.03;;;23.90;33.30;;;;;;4999353;28;20505;-69
2022/03/02 11:39:55;;;;;;;9.80;8.10;;;24.30;33.70;;;;;;4996432;28;20457;-69
2022/03/02 11:42:30;;;;;;;6.80;5.43;;;24.60;32.50;;;;;;4997901;28;20619;-68
2022/03/02 11:44:59;;;;;;;8.90;6.17;;;23.90;31.70;;;;;;4999294;28;20550;-69
2022/03/02 11:47:34;;;;;;;9.70;6.60;;;23.10;31.50;;;;;;4994404;28;20513;-69
2022/03/02 11:50:02;;;;;;;10.10;6.20;;;23.20;32.40;;;;;;4997318;28;20463;-69
2022/03/02 11:52:30;;;;;;;13.10;8.20;;;23.80;31.80;;;;;;4999889;28;20472;-69
2022/03/02 11:54:59;;;;;;;8.60;5.67;;;23.00;31.70;;;;;;4997249;28;20535;-68
2022/03/02 11:57:29;;;;;;;6.33;4.87;;;22.30;31.30;;;;;;4993486;28;21085;-69
2022/03/02 12:00:09;;;;;;;9.87;6.70;;;22.50;32.90;;;;;;5004544;28;20876;-69
2022/03/02 12:02:43;;;;;;;8.60;6.67;;;23.00;31.90;;;;;;4998573;28;20449;-69
2022/03/02 12:05:10;;;;;;;10.30;6.30;;;23.20;32.60;;;;;;4993354;28;20455;-68
2022/03/02 12:07:38;;;;;;;10.47;6.10;;;22.70;32.50;;;;;;4996221;28;20579;-68
2022/03/02 12:10:14;;;;;;;10.90;7.83;;;23.00;32.00;;;;;;4994193;28;20522;-69
2022/03/02 12:12:42;;;;;;;7.70;6.10;;;22.90;32.50;;;;;;4995002;28;20860;-68
2022/03/02 12:15:10;;;;;;;10.27;7.23;;;24.10;32.60;;;;;;4995794;28;21012;-69
2022/03/02 12:17:37;;;;;;;13.30;7.00;;;24.40;32.60;;;;;;4997101;28;20476;-68
2022/03/02 12:20:08;;;;;;;8.23;5.20;;;24.30;31.60;;;;;;4991829;28;20992;-68
2022/03/02 12:22:36;;;;;;;8.27;6.60;;;22.20;30.60;;;;;;4995374;28;20512;-68
2022/03/02 12:25:06;;;;;;;10.07;7.17;;;22.00;31.60;;;;;;4990015;28;20520;-69
2022/03/02 12:27:32;;;;;;;10.17;6.60;;;22.90;32.20;;;;;;4993764;28;20742;-69
2022/03/02 12:30:03;;;;;;;6.90;4.23;;;24.00;32.10;;;;;;4993229;28;20489;-72
2022/03/02 12:32:33;;;;;;;7.63;5.30;;;23.80;28.70;;;;;;4994834;28;21143;-68
2022/03/02 12:35:00;;;;;;;14.07;7.80;;;22.60;29.40;;;;;;4995480;28;21139;-70
2022/03/02 12:37:29;;;;;;;7.43;6.43;;;23.00;30.90;;;;;;4991664;28;20473;-69
2022/03/02 12:39:56;;;;;;;9.13;6.80;;;24.00;31.10;;;;;;4997348;28;20461;-68
2022/03/02 12:42:23;;;;;;;11.13;6.70;;;23.30;32.90;;;;;;4995622;28;20457;-68
2022/03/02 12:44:54;;;;;;;10.87;6.60;;;24.00;31.10;;;;;;4993014;28;20997;-69
2022/03/02 12:47:23;;;;;;;12.23;7.87;;;23.40;31.80;;;;;;4994762;28;20604;-68
2022/03/02 12:49:51;;;;;;;8.00;6.00;;;23.40;31.80;;;;;;4995076;28;20870;-70
2022/03/02 12:52:20;;;;;;;9.70;7.40;;;24.50;32.20;;;;;;4998606;28;20851;-68
2022/03/02 12:54:48;;;;;;;11.90;8.17;;;24.30;31.50;;;;;;4993270;28;20457;-69